Private Wetterstation Wechselburg
Wetterdaten: Sonntag, 18.12.2016
Datum Zeit Temp. +2m Bodentemp. Temp.+5cm Temp. Wind Windchill X Diff Temp. Feuchte +2m Feuchte +5cm Sonnenschein Luftdruck Regen Wind Richtung Richtung Sonnenschein Taupunkt Windchill Windben
18.12.2016 00:00 0,4 C 2,6 C 0,4 C 0,5 C 0,5 C 0,1 C 85 % 81 % 0 % 1036,6 hPa 0,0 l/m 0,8 km/h (0 Bft) SO 135 0 min -1,8 C 0,5 C 0,0 km/h (0 Bft)
18.12.2016 00:05 0,4 C 2,6 C 0,4 C 0,4 C 0,4 C 0,0 C 85 % 81 % 0 % 1036,6 hPa 0,0 l/m 0,5 km/h (0 Bft) S-SO 157 0 min -1,8 C 0,4 C 0,0 km/h (0 Bft)
18.12.2016 00:10 0,3 C 2,6 C 0,3 C 0,3 C 0,3 C 0,0 C 85 % 81 % 0 % 1036,6 hPa 0,0 l/m 0,3 km/h (0 Bft) O-SO 112 0 min -1,9 C 0,3 C 0,0 km/h (0 Bft)
18.12.2016 00:15 0,2 C 2,6 C 0,0 C 0,2 C 0,2 C 0,0 C 85 % 81 % 0 % 1036,6 hPa 0,0 l/m 0,0 km/h (0 Bft) SW 225 0 min -2,0 C 0,2 C 0,0 km/h (0 Bft)
18.12.2016 00:20 0,3 C 2,6 C -0,1 C 0,2 C 0,0 C 0,0 C 85 % 81 % 0 % 1036,9 hPa 0,0 l/m 0,0 km/h (0 Bft) SW 225 0 min -1,9 C 0,0 C 0,0 km/h (0 Bft)
18.12.2016 00:25 0,1 C 2,6 C -0,2 C 0,0 C -0,3 C 0,0 C 85 % 81 % 0 % 1036,9 hPa 0,0 l/m 0,0 km/h (0 Bft) O-SO 112 0 min -2,1 C -0,3 C 0,0 km/h (0 Bft)
18.12.2016 00:30 0,0 C 2,6 C -0,3 C -0,1 C -0,3 C 0,0 C 85 % 81 % 0 % 1036,9 hPa 0,0 l/m 0,0 km/h (0 Bft) N-NO 22 0 min -2,2 C -0,3 C 0,0 km/h (0 Bft)
18.12.2016 00:35 -0,1 C 2,6 C -0,4 C -0,2 C -0,3 C 0,0 C 85 % 82 % 0 % 1036,9 hPa 0,0 l/m 0,0 km/h (0 Bft) W-SW 247 0 min -2,3 C -0,3 C 0,0 km/h (0 Bft)
18.12.2016 00:40 -0,1 C 2,6 C -0,3 C -0,2 C -0,4 C 0,0 C 85 % 81 % 0 % 1036,9 hPa 0,0 l/m 0,0 km/h (0 Bft) O 90 0 min -2,3 C -0,4 C 0,0 km/h (0 Bft)
18.12.2016 00:45 -0,1 C 2,6 C -0,1 C -0,2 C -0,3 C 0,0 C 86 % 80 % 0 % 1036,9 hPa 0,0 l/m 1,0 km/h (0 Bft) S-SW 202 0 min -2,2 C -0,3 C 3,9 km/h (1 Bft)
18.12.2016 00:50 -0,2 C 2,6 C -0,1 C -0,2 C -0,2 C 0,0 C 86 % 80 % 0 % 1036,9 hPa 0,0 l/m 1,1 km/h (1 Bft) W 270 0 min -2,3 C -0,2 C 3,2 km/h (1 Bft)
18.12.2016 00:55 -0,2 C 2,6 C 0,1 C 0,2 C 0,2 C 0,4 C 86 % 79 % 0 % 1036,9 hPa 0,0 l/m 0,5 km/h (0 Bft) S 180 0 min -2,3 C 0,2 C 0,0 km/h (0 Bft)
18.12.2016 01:00 -0,1 C 2,6 C 0,3 C 0,5 C 0,5 C 0,6 C 86 % 79 % 0 % 1036,9 hPa 0,0 l/m 0,2 km/h (0 Bft) SW 225 0 min -2,2 C 0,5 C 0,0 km/h (0 Bft)
18.12.2016 01:05 -0,1 C 2,6 C 0,5 C 0,8 C 0,8 C 0,9 C 86 % 79 % 0 % 1036,9 hPa 0,0 l/m 0,2 km/h (0 Bft) S 180 0 min -2,2 C 0,8 C 0,0 km/h (0 Bft)
18.12.2016 01:10 -0,1 C 2,6 C 0,6 C 1,0 C 1,0 C 1,1 C 86 % 79 % 0 % 1036,9 hPa 0,0 l/m 0,2 km/h (0 Bft) SO 135 0 min -2,2 C 1,0 C 2,3 km/h (1 Bft)
18.12.2016 01:15 0,0 C 2,6 C 0,7 C 1,2 C 1,2 C 1,2 C 86 % 78 % 0 % 1036,9 hPa 0,0 l/m 1,6 km/h (1 Bft) S-SO 157 0 min -2,1 C 1,2 C 4,2 km/h (1 Bft)
18.12.2016 01:20 0,1 C 2,6 C 0,8 C 1,4 C 1,4 C 1,3 C 86 % 78 % 0 % 1036,9 hPa 0,0 l/m 1,8 km/h (1 Bft) S 180 0 min -2,0 C 1,4 C 3,2 km/h (1 Bft)
18.12.2016 01:25 0,1 C 2,6 C 0,8 C 1,5 C 1,5 C 1,4 C 86 % 78 % 0 % 1036,9 hPa 0,0 l/m 0,5 km/h (0 Bft) W 270 0 min -2,0 C 1,5 C 0,0 km/h (0 Bft)
18.12.2016 01:30 0,1 C 2,6 C 0,9 C 1,6 C 1,6 C 1,5 C 86 % 78 % 0 % 1036,9 hPa 0,0 l/m 0,3 km/h (0 Bft) SW 225 0 min -2,0 C 1,6 C 1,9 km/h (1 Bft)
18.12.2016 01:35 0,3 C 2,6 C 1,0 C 1,6 C 1,6 C 1,3 C 86 % 78 % 0 % 1036,9 hPa 0,0 l/m 0,3 km/h (0 Bft) O-NO 67 0 min -1,8 C 1,6 C 0,0 km/h (0 Bft)
18.12.2016 01:40 0,3 C 2,6 C 1,0 C 1,7 C 1,7 C 1,4 C 86 % 78 % 0 % 1036,9 hPa 0,0 l/m 0,3 km/h (0 Bft) O-SO 112 0 min -1,8 C 1,7 C 0,0 km/h (0 Bft)
18.12.2016 01:45 0,2 C 2,6 C 1,2 C 1,7 C 1,7 C 1,5 C 86 % 78 % 0 % 1036,9 hPa 0,0 l/m 0,3 km/h (0 Bft) S 180 0 min -1,9 C 1,7 C 4,5 km/h (1 Bft)
18.12.2016 01:50 0,3 C 2,6 C 1,2 C 1,8 C 1,8 C 1,5 C 86 % 78 % 0 % 1036,9 hPa 0,0 l/m 0,3 km/h (0 Bft) S-SW 202 0 min -1,8 C 1,8 C 0,0 km/h (0 Bft)
18.12.2016 01:55 0,4 C 2,6 C 1,2 C 1,8 C 1,8 C 1,4 C 86 % 78 % 0 % 1036,9 hPa 0,0 l/m 0,2 km/h (0 Bft) S 180 0 min -1,7 C 1,8 C 0,0 km/h (0 Bft)
18.12.2016 02:00 0,4 C 2,6 C 1,3 C 1,9 C 1,9 C 1,5 C 86 % 78 % 0 % 1036,9 hPa 0,0 l/m 0,2 km/h (0 Bft) S-SW 202 0 min -1,7 C 1,9 C 0,0 km/h (0 Bft)
18.12.2016 02:05 0,5 C 2,6 C 1,2 C 1,9 C 1,9 C 1,4 C 86 % 78 % 0 % 1036,9 hPa 0,0 l/m 0,2 km/h (0 Bft) S 180 0 min -1,6 C 1,9 C 2,9 km/h (1 Bft)
18.12.2016 02:10 0,5 C 2,6 C 1,2 C 1,9 C 1,9 C 1,4 C 86 % 78 % 0 % 1036,9 hPa 0,0 l/m 0,2 km/h (0 Bft) S 180 0 min -1,6 C 1,9 C 0,0 km/h (0 Bft)
18.12.2016 02:15 0,4 C 2,6 C 1,2 C 1,9 C 1,9 C 1,5 C 86 % 78 % 0 % 1036,9 hPa 0,0 l/m 0,2 km/h (0 Bft) SW 225 0 min -1,7 C 1,9 C 0,0 km/h (0 Bft)
18.12.2016 02:20 0,4 C 2,6 C 1,2 C 1,9 C 1,9 C 1,5 C 86 % 79 % 0 % 1036,9 hPa 0,0 l/m 0,3 km/h (0 Bft) W-SW 247 0 min -1,7 C 1,9 C 1,6 km/h (1 Bft)
18.12.2016 02:25 0,5 C 2,6 C 1,2 C 2,0 C 2,0 C 1,5 C 86 % 79 % 0 % 1036,9 hPa 0,0 l/m 0,6 km/h (0 Bft) SW 225 0 min -1,6 C 2,0 C 2,3 km/h (1 Bft)
18.12.2016 02:30 0,5 C 2,6 C 1,2 C 2,0 C 2,0 C 1,5 C 86 % 79 % 0 % 1036,9 hPa 0,0 l/m 0,5 km/h (0 Bft) W-SW 247 0 min -1,6 C 2,0 C 1,6 km/h (1 Bft)
18.12.2016 02:35 0,6 C 2,6 C 1,3 C 2,0 C 2,0 C 1,4 C 86 % 79 % 0 % 1036,9 hPa 0,0 l/m 0,3 km/h (0 Bft) SW 225 0 min -1,5 C 2,0 C 0,0 km/h (0 Bft)
18.12.2016 02:40 0,7 C 2,7 C 1,2 C 2,0 C 2,0 C 1,3 C 86 % 79 % 0 % 1036,9 hPa 0,0 l/m 0,0 km/h (0 Bft) W-SW 247 0 min -1,4 C 2,0 C 0,0 km/h (0 Bft)
18.12.2016 02:45 0,7 C 2,7 C 1,3 C 2,0 C 2,0 C 1,3 C 86 % 79 % 0 % 1036,9 hPa 0,0 l/m 0,0 km/h (0 Bft) S-SW 202 0 min -1,4 C 2,0 C 0,0 km/h (0 Bft)
18.12.2016 02:50 0,7 C 2,7 C 1,3 C 2,0 C 2,0 C 1,3 C 86 % 79 % 0 % 1036,9 hPa 0,0 l/m 0,0 km/h (0 Bft) SW 225 0 min -1,4 C 2,0 C 0,0 km/h (0 Bft)
18.12.2016 02:55 0,6 C 2,7 C 1,3 C 2,0 C 2,0 C 1,4 C 86 % 79 % 0 % 1036,9 hPa 0,0 l/m 0,0 km/h (0 Bft) SW 225 0 min -1,5 C 2,0 C 0,0 km/h (0 Bft)
18.12.2016 03:00 0,6 C 2,7 C 1,3 C 2,0 C 2,0 C 1,4 C 86 % 79 % 0 % 1036,9 hPa 0,0 l/m 0,0 km/h (0 Bft) SW 225 0 min -1,5 C 2,0 C 0,0 km/h (0 Bft)
18.12.2016 03:05 0,6 C 2,7 C 1,3 C 1,9 C 1,9 C 1,3 C 86 % 79 % 0 % 1036,9 hPa 0,0 l/m 0,0 km/h (0 Bft) SW 225 0 min -1,5 C 1,9 C 0,0 km/h (0 Bft)
18.12.2016 03:10 0,7 C 2,7 C 1,2 C 1,9 C 1,9 C 1,2 C 86 % 79 % 0 % 1036,9 hPa 0,0 l/m 0,0 km/h (0 Bft) S-SW 202 0 min -1,4 C 1,9 C 0,0 km/h (0 Bft)
18.12.2016 03:15 0,7 C 2,7 C 1,3 C 1,9 C 1,9 C 1,2 C 86 % 79 % 0 % 1036,9 hPa 0,0 l/m 0,0 km/h (0 Bft) W-SW 247 0 min -1,4 C 1,9 C 0,0 km/h (0 Bft)
18.12.2016 03:20 0,7 C 2,7 C 1,2 C 1,8 C 1,8 C 1,1 C 86 % 79 % 0 % 1036,9 hPa 0,0 l/m 0,0 km/h (0 Bft) SW 225 0 min -1,4 C 1,8 C 0,0 km/h (0 Bft)
18.12.2016 03:25 0,7 C 2,7 C 1,3 C 1,8 C 1,8 C 1,1 C 86 % 79 % 0 % 1036,9 hPa 0,0 l/m 0,3 km/h (0 Bft) SW 225 0 min -1,4 C 1,8 C 1,6 km/h (1 Bft)
18.12.2016 03:30 0,7 C 2,7 C 1,2 C 1,8 C 1,8 C 1,1 C 86 % 80 % 0 % 1036,9 hPa 0,0 l/m 0,3 km/h (0 Bft) S-SO 157 0 min -1,4 C 1,8 C 0,0 km/h (0 Bft)
18.12.2016 03:35 0,7 C 2,7 C 1,3 C 1,8 C 1,8 C 1,1 C 86 % 79 % 0 % 1036,9 hPa 0,0 l/m 0,6 km/h (0 Bft) S 180 0 min -1,4 C 1,8 C 5,0 km/h (1 Bft)
18.12.2016 03:40 0,7 C 2,7 C 1,4 C 1,9 C 1,9 C 1,2 C 86 % 79 % 0 % 1036,9 hPa 0,0 l/m 1,9 km/h (1 Bft) S 180 0 min -1,4 C 1,9 C 4,8 km/h (1 Bft)
18.12.2016 03:45 0,7 C 2,7 C 1,5 C 1,8 C 1,8 C 1,1 C 86 % 79 % 0 % 1036,9 hPa 0,0 l/m 2,7 km/h (1 Bft) O 90 0 min -1,4 C 1,8 C 5,8 km/h (2 Bft)
18.12.2016 03:50 0,7 C 2,7 C 1,5 C 1,9 C 1,9 C 1,2 C 86 % 79 % 0 % 1036,9 hPa 0,0 l/m 1,4 km/h (1 Bft) S-SO 157 0 min -1,4 C 1,9 C 0,0 km/h (0 Bft)
18.12.2016 03:55 0,7 C 2,7 C 1,5 C 1,8 C 1,8 C 1,1 C 86 % 80 % 0 % 1036,9 hPa 0,0 l/m 0,5 km/h (0 Bft) S-SO 157 0 min -1,4 C 1,8 C 2,9 km/h (1 Bft)
18.12.2016 04:00 0,7 C 2,7 C 1,4 C 1,8 C 1,8 C 1,1 C 86 % 80 % 0 % 1036,9 hPa 0,0 l/m 0,6 km/h (0 Bft) SW 225 0 min -1,4 C 1,8 C 0,0 km/h (0 Bft)
18.12.2016 04:05 0,7 C 2,7 C 1,5 C 1,8 C 1,8 C 1,1 C 86 % 80 % 0 % 1036,9 hPa 0,0 l/m 0,3 km/h (0 Bft) N-NO 22 0 min -1,4 C 1,8 C 0,0 km/h (0 Bft)
18.12.2016 04:10 0,7 C 2,7 C 1,5 C 1,8 C 1,8 C 1,1 C 86 % 80 % 0 % 1036,9 hPa 0,0 l/m 0,8 km/h (0 Bft) W 270 0 min -1,4 C 1,8 C 3,5 km/h (1 Bft)
18.12.2016 04:15 0,7 C 2,7 C 1,5 C 1,8 C 1,8 C 1,1 C 86 % 80 % 0 % 1036,9 hPa 0,0 l/m 1,3 km/h (1 Bft) SO 135 0 min -1,4 C 1,8 C 3,9 km/h (1 Bft)
18.12.2016 04:20 0,7 C 2,7 C 1,5 C 1,8 C 1,8 C 1,1 C 86 % 80 % 0 % 1036,9 hPa 0,0 l/m 1,1 km/h (1 Bft) W-SW 247 0 min -1,4 C 1,8 C 4,2 km/h (1 Bft)
18.12.2016 04:25 0,7 C 2,7 C 1,5 C 1,8 C 1,8 C 1,1 C 86 % 80 % 0 % 1036,9 hPa 0,0 l/m 0,8 km/h (0 Bft) W-SW 247 0 min -1,4 C 1,8 C 0,0 km/h (0 Bft)
18.12.2016 04:30 0,7 C 2,8 C 1,4 C 1,8 C 1,8 C 1,1 C 86 % 80 % 0 % 1036,9 hPa 0,0 l/m 1,6 km/h (1 Bft) S 180 0 min -1,4 C 1,8 C 2,6 km/h (1 Bft)
18.12.2016 04:35 0,7 C 2,8 C 1,4 C 1,8 C 1,8 C 1,1 C 86 % 80 % 0 % 1036,9 hPa 0,0 l/m 1,9 km/h (1 Bft) N-NO 22 0 min -1,4 C 1,8 C 0,0 km/h (0 Bft)
18.12.2016 04:40 0,7 C 2,8 C 1,5 C 1,8 C 1,8 C 1,1 C 86 % 80 % 0 % 1036,9 hPa 0,0 l/m 1,9 km/h (1 Bft) S 180 0 min -1,4 C 1,8 C 1,9 km/h (1 Bft)
18.12.2016 04:45 0,7 C 2,8 C 1,5 C 1,8 C 1,8 C 1,1 C 86 % 80 % 0 % 1036,9 hPa 0,0 l/m 2,3 km/h (1 Bft) S-SO 157 0 min -1,4 C 1,8 C 8,4 km/h (2 Bft)
18.12.2016 04:50 0,7 C 2,8 C 1,5 C 1,1 C 1,1 C 0,4 C 86 % 80 % 0 % 1036,9 hPa 0,0 l/m 3,7 km/h (1 Bft) S-SO 157 0 min -1,4 C 1,1 C 5,3 km/h (1 Bft)
18.12.2016 04:55 0,7 C 2,8 C 1,5 C 1,0 C 1,0 C 0,3 C 86 % 80 % 0 % 1036,9 hPa 0,0 l/m 3,9 km/h (1 Bft) W-SW 247 0 min -1,4 C 1,0 C 11,1 km/h (2 Bft)
18.12.2016 05:00 0,6 C 2,8 C 1,5 C 1,8 C 1,8 C 1,2 C 86 % 80 % 0 % 1036,9 hPa 0,0 l/m 2,6 km/h (1 Bft) N-NO 22 0 min -1,5 C 1,8 C 5,3 km/h (1 Bft)
18.12.2016 05:05 0,7 C 2,8 C 1,5 C 1,6 C 1,6 C 0,9 C 86 % 80 % 0 % 1036,9 hPa 0,0 l/m 2,7 km/h (1 Bft) S 180 0 min -1,4 C 1,6 C 0,0 km/h (0 Bft)
18.12.2016 05:10 0,7 C 2,8 C 1,5 C 1,6 C 1,6 C 0,9 C 86 % 80 % 0 % 1036,9 hPa 0,0 l/m 2,7 km/h (1 Bft) S-SO 157 0 min -1,4 C 1,6 C 2,4 km/h (1 Bft)
18.12.2016 05:15 0,7 C 2,8 C 1,5 C 1,7 C 1,7 C 1,0 C 86 % 80 % 0 % 1036,9 hPa 0,0 l/m 1,9 km/h (1 Bft) W-NW 292 0 min -1,4 C 1,7 C 3,9 km/h (1 Bft)
18.12.2016 05:20 0,7 C 2,8 C 1,5 C 1,6 C 1,6 C 0,9 C 86 % 80 % 0 % 1036,9 hPa 0,0 l/m 1,6 km/h (1 Bft) O-NO 67 0 min -1,4 C 1,6 C 0,0 km/h (0 Bft)
18.12.2016 05:25 0,5 C 2,8 C 1,5 C 1,7 C 1,7 C 1,2 C 86 % 80 % 0 % 1036,9 hPa 0,0 l/m 1,4 km/h (1 Bft) SO 135 0 min -1,6 C 1,7 C 3,7 km/h (1 Bft)
18.12.2016 05:30 0,5 C 2,8 C 1,5 C 1,7 C 1,7 C 1,2 C 86 % 80 % 0 % 1036,9 hPa 0,0 l/m 1,3 km/h (1 Bft) W 270 0 min -1,6 C 1,7 C 2,4 km/h (1 Bft)
18.12.2016 05:35 0,5 C 2,8 C 1,5 C 1,6 C 1,6 C 1,1 C 86 % 80 % 0 % 1036,9 hPa 0,0 l/m 1,3 km/h (1 Bft) W-SW 247 0 min -1,6 C 1,6 C 1,9 km/h (1 Bft)
18.12.2016 05:40 0,5 C 2,8 C 1,4 C 1,6 C 1,6 C 1,1 C 86 % 80 % 0 % 1036,9 hPa 0,0 l/m 1,6 km/h (1 Bft) W-SW 247 0 min -1,6 C 1,6 C 2,1 km/h (1 Bft)
18.12.2016 05:45 0,5 C 2,9 C 1,5 C 1,6 C 1,6 C 1,1 C 87 % 80 % 0 % 1036,9 hPa 0,0 l/m 1,9 km/h (1 Bft) S-SO 157 0 min -1,4 C 1,6 C 3,1 km/h (1 Bft)
18.12.2016 05:50 0,5 C 2,9 C 1,5 C 1,7 C 1,7 C 1,2 C 87 % 80 % 0 % 1036,9 hPa 0,0 l/m 1,8 km/h (1 Bft) SW 225 0 min -1,4 C 1,7 C 1,9 km/h (1 Bft)
18.12.2016 05:55 0,5 C 2,9 C 1,4 C 1,7 C 1,7 C 1,2 C 87 % 80 % 0 % 1036,9 hPa 0,0 l/m 1,4 km/h (1 Bft) W-SW 247 0 min -1,4 C 1,7 C 0,0 km/h (0 Bft)
18.12.2016 06:00 0,5 C 2,9 C 1,5 C 1,7 C 1,7 C 1,2 C 87 % 80 % 0 % 1035,4 hPa 0,0 l/m 0,8 km/h (0 Bft) O-SO 112 0 min -1,4 C 1,7 C 0,0 km/h (0 Bft)
18.12.2016 06:05 0,5 C 2,9 C 1,5 C 1,7 C 1,7 C 1,2 C 87 % 80 % 0 % 1035,4 hPa 0,0 l/m 1,0 km/h (0 Bft) SO 135 0 min -1,4 C 1,7 C 3,7 km/h (1 Bft)
18.12.2016 06:10 0,5 C 2,9 C 1,5 C 1,7 C 1,7 C 1,2 C 87 % 79 % 0 % 1035,4 hPa 0,0 l/m 1,3 km/h (1 Bft) S 180 0 min -1,4 C 1,7 C 0,0 km/h (0 Bft)
18.12.2016 06:15 0,5 C 2,9 C 1,5 C 1,7 C 1,7 C 1,2 C 87 % 79 % 0 % 1035,4 hPa 0,0 l/m 1,0 km/h (0 Bft) O-SO 112 0 min -1,4 C 1,7 C 4,2 km/h (1 Bft)
18.12.2016 06:20 0,5 C 2,9 C 1,5 C 1,7 C 1,7 C 1,2 C 87 % 79 % 0 % 1035,4 hPa 0,0 l/m 0,6 km/h (0 Bft) NW 315 0 min -1,4 C 1,7 C 0,0 km/h (0 Bft)
18.12.2016 06:25 0,5 C 2,9 C 1,5 C 1,6 C 1,6 C 1,1 C 87 % 79 % 0 % 1035,4 hPa 0,0 l/m 0,3 km/h (0 Bft) W-NW 292 0 min -1,4 C 1,6 C 0,0 km/h (0 Bft)
18.12.2016 06:30 0,5 C 2,9 C 1,5 C 1,6 C 1,6 C 1,1 C 87 % 79 % 0 % 1035,4 hPa 0,0 l/m 1,0 km/h (0 Bft) SW 225 0 min -1,4 C 1,6 C 6,6 km/h (2 Bft)
18.12.2016 06:35 0,5 C 2,9 C 1,5 C 1,0 C 1,0 C 0,5 C 87 % 79 % 0 % 1035,4 hPa 0,0 l/m 3,5 km/h (1 Bft) SO 135 0 min -1,4 C 1,0 C 5,0 km/h (1 Bft)
18.12.2016 06:40 0,5 C 2,9 C 1,5 C 0,5 C 0,4 C 0,0 C 87 % 79 % 0 % 1035,4 hPa 0,0 l/m 4,5 km/h (1 Bft) SO 135 0 min -1,4 C 0,4 C 6,1 km/h (2 Bft)
18.12.2016 06:45 0,5 C 2,9 C 1,5 C 1,0 C 1,0 C 0,5 C 87 % 79 % 0 % 1035,4 hPa 0,0 l/m 3,5 km/h (1 Bft) S-SW 202 0 min -1,4 C 1,0 C 0,0 km/h (0 Bft)
18.12.2016 06:50 0,4 C 2,9 C 1,5 C 1,6 C 1,6 C 1,2 C 87 % 78 % 0 % 1035,4 hPa 0,0 l/m 2,6 km/h (1 Bft) O-SO 112 0 min -1,5 C 1,6 C 0,0 km/h (0 Bft)
18.12.2016 06:55 0,4 C 2,9 C 1,5 C 1,6 C 1,6 C 1,2 C 87 % 78 % 0 % 1035,4 hPa 0,0 l/m 1,6 km/h (1 Bft) S-SO 157 0 min -1,5 C 1,6 C 3,2 km/h (1 Bft)
18.12.2016 07:00 0,4 C 2,9 C 1,5 C 1,6 C 1,6 C 1,2 C 87 % 78 % 0 % 1035,4 hPa 0,0 l/m 1,9 km/h (1 Bft) O-SO 112 0 min -1,5 C 1,6 C 3,7 km/h (1 Bft)
18.12.2016 07:05 0,4 C 2,9 C 1,4 C 0,7 C 0,7 C 0,3 C 87 % 78 % 0 % 1035,4 hPa 0,0 l/m 3,9 km/h (1 Bft) S-SO 157 0 min -1,5 C 0,7 C 10,3 km/h (2 Bft)
18.12.2016 07:10 0,4 C 2,9 C 1,5 C 0,3 C 0,2 C 0,0 C 87 % 78 % 0 % 1035,4 hPa 0,0 l/m 4,8 km/h (1 Bft) W-NW 292 0 min -1,5 C -1,3 C 5,1 km/h (1 Bft)
18.12.2016 07:15 0,4 C 2,9 C 1,4 C 0,4 C 0,4 C 0,0 C 87 % 78 % 0 % 1035,4 hPa 0,0 l/m 4,3 km/h (1 Bft) SO 135 0 min -1,5 C 0,4 C 3,4 km/h (1 Bft)
18.12.2016 07:20 0,4 C 2,9 C 1,4 C 0,6 C 0,6 C 0,2 C 87 % 78 % 0 % 1035,4 hPa 0,0 l/m 4,0 km/h (1 Bft) W 270 0 min -1,5 C 0,6 C 9,2 km/h (2 Bft)
18.12.2016 07:25 0,5 C 2,9 C 1,4 C 0,9 C 0,9 C 0,4 C 87 % 78 % 0 % 1035,4 hPa 0,0 l/m 3,4 km/h (1 Bft) SO 135 0 min -1,4 C 0,9 C 12,4 km/h (3 Bft)
18.12.2016 07:30 0,4 C 2,9 C 1,4 C 1,1 C 1,1 C 0,7 C 87 % 78 % 0 % 1035,4 hPa 0,0 l/m 3,2 km/h (1 Bft) SW 225 0 min -1,5 C 1,1 C 4,5 km/h (1 Bft)
18.12.2016 07:35 0,4 C 2,9 C 1,5 C 1,3 C 1,3 C 0,9 C 88 % 77 % 0 % 1035,4 hPa 0,0 l/m 3,1 km/h (1 Bft) W 270 0 min -1,3 C 1,3 C 3,5 km/h (1 Bft)
18.12.2016 07:40 0,5 C 2,9 C 1,5 C 0,9 C 0,9 C 0,4 C 88 % 77 % 0 % 1034,2 hPa 0,0 l/m 3,7 km/h (1 Bft) S 180 0 min -1,3 C 0,9 C 4,8 km/h (1 Bft)
18.12.2016 07:45 0,5 C 2,9 C 1,5 C 0,9 C 0,9 C 0,4 C 88 % 77 % 0 % 1034,2 hPa 0,0 l/m 3,9 km/h (1 Bft) S 180 0 min -1,3 C 0,9 C 6,4 km/h (2 Bft)
18.12.2016 07:50 0,5 C 2,9 C 1,5 C 1,0 C 1,0 C 0,5 C 88 % 77 % 0 % 1034,2 hPa 0,0 l/m 3,7 km/h (1 Bft) S-SO 157 0 min -1,3 C 1,0 C 5,8 km/h (2 Bft)
18.12.2016 07:55 0,5 C 2,9 C 1,7 C 1,3 C 1,3 C 0,8 C 88 % 77 % 0 % 1034,2 hPa 0,0 l/m 3,2 km/h (1 Bft) S-SO 157 0 min -1,3 C 1,3 C 4,5 km/h (1 Bft)
18.12.2016 08:00 0,7 C 3,1 C 1,6 C 1,8 C 1,8 C 1,1 C 88 % 77 % 0 % 1034,2 hPa 0,0 l/m 2,1 km/h (1 Bft) N-NW 337 0 min -1,1 C 1,8 C 1,9 km/h (1 Bft)
18.12.2016 08:05 0,7 C 3,1 C 1,7 C 1,7 C 1,7 C 1,0 C 88 % 77 % 0 % 1034,2 hPa 0,0 l/m 1,6 km/h (1 Bft) O-NO 67 0 min -1,1 C 1,7 C 3,1 km/h (1 Bft)
18.12.2016 08:10 0,7 C 3,1 C 1,7 C 1,7 C 1,7 C 1,0 C 88 % 77 % 0 % 1034,2 hPa 0,0 l/m 1,9 km/h (1 Bft) S-SW 202 0 min -1,1 C 1,7 C 2,9 km/h (1 Bft)
18.12.2016 08:15 0,7 C 3,1 C 1,7 C 1,4 C 1,4 C 0,7 C 88 % 77 % 0 % 1034,2 hPa 0,0 l/m 3,1 km/h (1 Bft) SW 225 0 min -1,1 C 1,4 C 5,3 km/h (1 Bft)
18.12.2016 08:20 0,7 C 3,1 C 1,7 C 0,8 C 0,8 C 0,1 C 88 % 77 % 0 % 1034,2 hPa 0,0 l/m 4,0 km/h (1 Bft) W-SW 247 0 min -1,1 C 0,8 C 3,7 km/h (1 Bft)
18.12.2016 08:25 0,7 C 3,1 C 1,7 C 0,8 C 0,8 C 0,1 C 88 % 77 % 3 % 1034,2 hPa 0,0 l/m 4,2 km/h (1 Bft) W-SW 247 0 min -1,1 C 0,8 C 4,8 km/h (1 Bft)
18.12.2016 08:30 0,7 C 3,1 C 1,7 C 0,7 C 0,7 C 0,0 C 88 % 77 % 0 % 1034,2 hPa 0,0 l/m 4,3 km/h (1 Bft) SW 225 0 min -1,1 C 0,7 C 4,8 km/h (1 Bft)
18.12.2016 08:35 0,7 C 3,1 C 1,8 C 1,3 C 1,3 C 0,6 C 88 % 77 % 16 % 1034,2 hPa 0,0 l/m 3,4 km/h (1 Bft) SW 225 5 min -1,1 C 1,3 C 5,0 km/h (1 Bft)
18.12.2016 08:40 0,7 C 3,1 C 1,9 C 1,7 C 1,7 C 1,0 C 88 % 77 % 26 % 1034,3 hPa 0,0 l/m 2,7 km/h (1 Bft) SW 225 5 min -1,1 C 1,7 C 4,2 km/h (1 Bft)
18.12.2016 08:45 0,7 C 3,1 C 1,8 C 1,0 C 1,0 C 0,3 C 88 % 77 % 8 % 1034,3 hPa 0,0 l/m 3,9 km/h (1 Bft) SW 225 0 min -1,1 C 1,0 C 6,9 km/h (2 Bft)
18.12.2016 08:50 0,7 C 3,1 C 1,8 C 0,7 C 0,6 C 0,0 C 88 % 77 % 0 % 1034,3 hPa 0,0 l/m 4,7 km/h (1 Bft) SW 225 0 min -1,1 C -0,8 C 7,7 km/h (2 Bft)
18.12.2016 08:55 0,7 C 3,1 C 1,7 C 0,7 C 0,7 C 0,0 C 88 % 77 % 0 % 1034,3 hPa 0,0 l/m 4,5 km/h (1 Bft) W-SW 247 0 min -1,1 C 0,7 C 4,8 km/h (1 Bft)
18.12.2016 09:00 0,7 C 3,1 C 1,7 C 1,1 C 1,1 C 0,4 C 88 % 77 % 11 % 1034,3 hPa 0,0 l/m 3,7 km/h (1 Bft) SW 225 0 min -1,1 C 1,1 C 3,2 km/h (1 Bft)
18.12.2016 09:05 0,7 C 3,1 C 1,9 C 1,0 C 1,0 C 0,3 C 88 % 77 % 8 % 1034,3 hPa 0,0 l/m 3,9 km/h (1 Bft) W-SW 247 0 min -1,1 C 1,0 C 7,1 km/h (2 Bft)
18.12.2016 09:10 0,8 C 3,1 C 1,9 C 1,0 C 1,0 C 0,2 C 88 % 77 % 5 % 1034,3 hPa 0,0 l/m 3,9 km/h (1 Bft) W-SW 247 0 min -1,0 C 1,0 C 3,4 km/h (1 Bft)
18.12.2016 09:15 0,8 C 3,1 C 1,8 C 0,8 C 0,8 C 0,0 C 88 % 77 % 0 % 1034,3 hPa 0,0 l/m 4,2 km/h (1 Bft) W-SW 247 0 min -1,0 C 0,8 C 6,1 km/h (2 Bft)
18.12.2016 09:20 0,8 C 3,1 C 1,9 C 0,9 C 0,9 C 0,1 C 88 % 76 % 3 % 1034,3 hPa 0,0 l/m 4,2 km/h (1 Bft) W-SW 247 0 min -1,0 C 0,9 C 4,8 km/h (1 Bft)
18.12.2016 09:25 0,8 C 3,1 C 1,8 C 0,8 C 0,8 C 0,0 C 88 % 76 % 0 % 1034,3 hPa 0,0 l/m 4,3 km/h (1 Bft) W-SW 247 0 min -1,0 C 0,8 C 2,6 km/h (1 Bft)
18.12.2016 09:30 0,9 C 3,1 C 1,9 C 1,2 C 1,2 C 0,3 C 89 % 76 % 8 % 1034,3 hPa 0,0 l/m 3,7 km/h (1 Bft) W-SW 247 0 min -0,7 C 1,2 C 3,7 km/h (1 Bft)
18.12.2016 09:35 0,9 C 3,1 C 1,9 C 1,8 C 1,8 C 0,9 C 89 % 76 % 24 % 1034,3 hPa 0,0 l/m 2,7 km/h (1 Bft) W 270 0 min -0,7 C 1,8 C 2,7 km/h (1 Bft)
18.12.2016 09:40 0,8 C 3,1 C 1,9 C 1,9 C 1,9 C 1,1 C 88 % 76 % 29 % 1034,3 hPa 0,0 l/m 2,1 km/h (1 Bft) W-SW 247 0 min -1,0 C 1,9 C 1,9 km/h (1 Bft)
18.12.2016 09:45 0,9 C 3,1 C 1,9 C 1,9 C 1,9 C 1,0 C 89 % 76 % 26 % 1034,3 hPa 0,0 l/m 2,6 km/h (1 Bft) W-SW 247 0 min -0,7 C 1,9 C 3,7 km/h (1 Bft)
18.12.2016 09:50 0,9 C 3,1 C 1,9 C 1,7 C 1,7 C 0,8 C 89 % 76 % 21 % 1034,3 hPa 0,0 l/m 2,9 km/h (1 Bft) S 180 0 min -0,7 C 1,7 C 2,4 km/h (1 Bft)
18.12.2016 09:55 0,8 C 3,0 C 1,9 C 1,8 C 1,8 C 1,0 C 88 % 76 % 26 % 1034,3 hPa 0,0 l/m 2,7 km/h (1 Bft) W-SW 247 0 min -1,0 C 1,8 C 1,8 km/h (1 Bft)
18.12.2016 10:00 0,8 C 3,1 C 1,8 C 1,9 C 1,9 C 1,1 C 88 % 76 % 29 % 1034,3 hPa 0,0 l/m 2,3 km/h (1 Bft) W-SW 247 0 min -1,0 C 1,9 C 2,6 km/h (1 Bft)
18.12.2016 10:05 0,8 C 3,0 C 1,8 C 1,9 C 1,9 C 1,1 C 88 % 76 % 29 % 1034,3 hPa 0,0 l/m 1,6 km/h (1 Bft) SW 225 0 min -1,0 C 1,9 C 1,8 km/h (1 Bft)
18.12.2016 10:10 0,8 C 3,1 C 1,9 C 2,0 C 2,0 C 1,2 C 89 % 76 % 32 % 1034,3 hPa 0,0 l/m 1,9 km/h (1 Bft) SW 225 0 min -0,8 C 2,0 C 2,3 km/h (1 Bft)
18.12.2016 10:15 0,8 C 3,0 C 1,9 C 2,0 C 2,0 C 1,2 C 89 % 76 % 32 % 1034,3 hPa 0,0 l/m 1,8 km/h (1 Bft) W-SW 247 0 min -0,8 C 2,0 C 3,7 km/h (1 Bft)
18.12.2016 10:20 0,9 C 3,0 C 2,0 C 2,1 C 2,1 C 1,2 C 89 % 76 % 32 % 1034,3 hPa 0,0 l/m 1,8 km/h (1 Bft) W-SW 247 0 min -0,7 C 2,1 C 2,1 km/h (1 Bft)
18.12.2016 10:25 0,9 C 3,0 C 2,0 C 2,2 C 2,2 C 1,3 C 89 % 76 % 34 % 1034,3 hPa 0,0 l/m 1,8 km/h (1 Bft) W 270 0 min -0,7 C 2,2 C 1,8 km/h (1 Bft)
18.12.2016 10:30 0,9 C 3,2 C 2,0 C 2,2 C 2,2 C 1,3 C 89 % 76 % 34 % 1034,3 hPa 0,0 l/m 2,3 km/h (1 Bft) SW 225 0 min -0,7 C 2,2 C 3,9 km/h (1 Bft)
18.12.2016 10:35 1,0 C 3,2 C 2,2 C 2,3 C 2,3 C 1,3 C 89 % 76 % 34 % 1034,3 hPa 0,0 l/m 1,9 km/h (1 Bft) W 270 0 min -0,6 C 2,3 C 0,0 km/h (0 Bft)
18.12.2016 10:40 1,1 C 3,2 C 2,2 C 2,4 C 2,4 C 1,3 C 89 % 76 % 34 % 1034,3 hPa 0,0 l/m 1,8 km/h (1 Bft) S 180 0 min -0,5 C 2,4 C 0,0 km/h (0 Bft)
18.12.2016 10:45 1,1 C 3,2 C 2,3 C 2,5 C 2,5 C 1,4 C 89 % 76 % 37 % 1034,3 hPa 0,0 l/m 1,1 km/h (1 Bft) SW 225 0 min -0,5 C 2,5 C 3,5 km/h (1 Bft)
18.12.2016 10:50 1,1 C 3,2 C 2,3 C 2,5 C 2,5 C 1,4 C 89 % 76 % 37 % 1034,3 hPa 0,0 l/m 1,9 km/h (1 Bft) SW 225 0 min -0,5 C 2,5 C 7,1 km/h (2 Bft)
18.12.2016 10:55 1,1 C 3,2 C 2,3 C 2,2 C 2,2 C 1,1 C 89 % 76 % 29 % 1034,3 hPa 0,0 l/m 2,9 km/h (1 Bft) W 270 0 min -0,5 C 2,2 C 7,1 km/h (2 Bft)
18.12.2016 11:00 1,1 C 3,2 C 2,3 C 2,1 C 2,1 C 1,0 C 89 % 76 % 26 % 1034,3 hPa 0,0 l/m 3,2 km/h (1 Bft) SW 225 0 min -0,5 C 2,1 C 7,1 km/h (2 Bft)
18.12.2016 11:05 1,1 C 3,2 C 2,2 C 1,8 C 1,8 C 0,7 C 89 % 76 % 18 % 1034,3 hPa 0,0 l/m 3,5 km/h (1 Bft) W-SW 247 0 min -0,5 C 1,8 C 3,1 km/h (1 Bft)
18.12.2016 11:10 1,1 C 3,2 C 2,3 C 1,8 C 1,8 C 0,7 C 89 % 76 % 18 % 1034,3 hPa 0,0 l/m 3,4 km/h (1 Bft) W-SW 247 0 min -0,5 C 1,8 C 5,5 km/h (1 Bft)
18.12.2016 11:15 1,2 C 3,2 C 2,3 C 2,1 C 2,1 C 0,9 C 89 % 76 % 24 % 1034,3 hPa 0,0 l/m 3,2 km/h (1 Bft) SW 225 0 min -0,4 C 2,1 C 2,7 km/h (1 Bft)
18.12.2016 11:20 1,2 C 3,2 C 2,4 C 2,1 C 2,1 C 0,9 C 89 % 76 % 24 % 1034,3 hPa 0,0 l/m 3,4 km/h (1 Bft) W-SW 247 0 min -0,4 C 2,1 C 4,5 km/h (1 Bft)
18.12.2016 11:25 1,3 C 3,2 C 2,7 C 2,8 C 2,8 C 1,5 C 89 % 76 % 39 % 1034,3 hPa 0,0 l/m 2,9 km/h (1 Bft) S-SW 202 0 min -0,3 C 2,8 C 4,5 km/h (1 Bft)
18.12.2016 11:30 1,4 C 3,2 C 2,7 C 2,7 C 2,7 C 1,3 C 89 % 76 % 34 % 1034,3 hPa 0,0 l/m 3,2 km/h (1 Bft) W 270 0 min -0,2 C 2,7 C 4,3 km/h (1 Bft)
18.12.2016 11:35 1,5 C 3,2 C 2,8 C 3,0 C 3,0 C 1,5 C 89 % 76 % 39 % 1034,3 hPa 0,0 l/m 2,9 km/h (1 Bft) SW 225 0 min -0,1 C 3,0 C 2,3 km/h (1 Bft)
18.12.2016 11:40 1,5 C 3,2 C 3,0 C 3,3 C 3,3 C 1,8 C 89 % 76 % 47 % 1034,3 hPa 0,0 l/m 2,6 km/h (1 Bft) S-SO 157 0 min -0,1 C 3,3 C 4,2 km/h (1 Bft)
18.12.2016 11:45 1,6 C 3,2 C 3,1 C 3,4 C 3,4 C 1,8 C 89 % 75 % 47 % 1034,3 hPa 0,0 l/m 2,9 km/h (1 Bft) SW 225 0 min -0,0 C 3,4 C 2,9 km/h (1 Bft)
18.12.2016 11:50 1,6 C 3,2 C 3,1 C 3,1 C 3,1 C 1,5 C 89 % 75 % 39 % 1034,3 hPa 0,0 l/m 3,5 km/h (1 Bft) W-SW 247 0 min -0,0 C 3,1 C 4,3 km/h (1 Bft)
18.12.2016 11:55 1,7 C 3,2 C 2,9 C 2,7 C 2,7 C 1,0 C 89 % 75 % 26 % 1034,3 hPa 0,0 l/m 4,0 km/h (1 Bft) SW 225 0 min 0,1 C 2,7 C 6,6 km/h (2 Bft)
18.12.2016 12:00 1,6 C 3,2 C 2,9 C 2,6 C 2,6 C 1,0 C 89 % 76 % 26 % 1034,3 hPa 0,0 l/m 4,2 km/h (1 Bft) W-SW 247 0 min -0,0 C 2,6 C 6,8 km/h (2 Bft)
18.12.2016 12:05 1,6 C 3,2 C 2,9 C 2,7 C 2,7 C 1,1 C 89 % 75 % 29 % 1034,3 hPa 0,0 l/m 4,0 km/h (1 Bft) W-SW 247 0 min -0,0 C 2,7 C 5,8 km/h (2 Bft)
18.12.2016 12:10 1,6 C 3,2 C 3,1 C 2,8 C 2,8 C 1,2 C 89 % 75 % 32 % 1034,3 hPa 0,0 l/m 4,0 km/h (1 Bft) SW 225 0 min -0,0 C 2,8 C 6,8 km/h (2 Bft)
18.12.2016 12:15 1,7 C 3,2 C 3,2 C 3,1 C 3,1 C 1,4 C 89 % 75 % 37 % 1034,3 hPa 0,0 l/m 4,0 km/h (1 Bft) SW 225 0 min 0,1 C 3,1 C 6,3 km/h (2 Bft)
18.12.2016 12:20 1,8 C 3,3 C 3,3 C 3,1 C 3,1 C 1,3 C 89 % 76 % 34 % 1034,3 hPa 0,0 l/m 4,0 km/h (1 Bft) W-SW 247 0 min 0,2 C 3,1 C 6,6 km/h (2 Bft)
18.12.2016 12:25 1,9 C 3,3 C 3,2 C 2,8 C 2,8 C 0,9 C 89 % 75 % 24 % 1034,3 hPa 0,0 l/m 4,5 km/h (1 Bft) SW 225 0 min 0,3 C 2,8 C 6,9 km/h (2 Bft)
18.12.2016 12:30 1,9 C 3,3 C 3,3 C 2,7 C 2,7 C 0,8 C 89 % 76 % 21 % 1034,3 hPa 0,0 l/m 4,8 km/h (1 Bft) W-SW 247 0 min 0,3 C 1,6 C 4,7 km/h (1 Bft)
18.12.2016 12:35 1,9 C 3,3 C 3,2 C 2,4 C 2,4 C 0,5 C 89 % 75 % 13 % 1034,3 hPa 0,0 l/m 5,1 km/h (1 Bft) W-SW 247 0 min 0,3 C 1,1 C 6,9 km/h (2 Bft)
18.12.2016 12:40 1,9 C 3,3 C 3,4 C 2,7 C 2,7 C 0,8 C 89 % 76 % 21 % 1032,5 hPa 0,0 l/m 4,8 km/h (1 Bft) W-SW 247 0 min 0,3 C 1,6 C 4,7 km/h (1 Bft)
18.12.2016 12:45 2,1 C 3,2 C 3,8 C 3,9 C 3,9 C 1,8 C 89 % 76 % 47 % 1032,5 hPa 0,0 l/m 5,0 km/h (1 Bft) W-SW 247 0 min 0,5 C 2,8 C 10,5 km/h (2 Bft)
18.12.2016 12:50 2,2 C 3,2 C 3,7 C 4,0 C 4,0 C 1,8 C 89 % 75 % 47 % 1032,5 hPa 0,0 l/m 4,8 km/h (1 Bft) W-SW 247 0 min 0,6 C 3,0 C 5,8 km/h (2 Bft)
18.12.2016 12:55 2,3 C 3,2 C 3,7 C 3,8 C 3,8 C 1,5 C 89 % 75 % 39 % 1032,5 hPa 0,0 l/m 4,5 km/h (1 Bft) SW 225 0 min 0,7 C 3,8 C 5,1 km/h (1 Bft)
18.12.2016 13:00 2,2 C 3,2 C 3,7 C 4,0 C 4,0 C 1,8 C 89 % 75 % 47 % 1032,2 hPa 0,0 l/m 4,2 km/h (1 Bft) W 270 0 min 0,6 C 4,0 C 4,5 km/h (1 Bft)
18.12.2016 13:05 2,3 C 3,2 C 3,9 C 3,8 C 3,8 C 1,5 C 89 % 75 % 39 % 1032,2 hPa 0,0 l/m 4,7 km/h (1 Bft) S 180 0 min 0,7 C 2,8 C 4,2 km/h (1 Bft)
18.12.2016 13:10 2,3 C 3,2 C 3,9 C 4,0 C 4,0 C 1,7 C 89 % 75 % 45 % 1032,2 hPa 0,0 l/m 4,2 km/h (1 Bft) W-SW 247 0 min 0,7 C 4,0 C 5,8 km/h (2 Bft)
18.12.2016 13:15 2,4 C 3,2 C 3,7 C 4,1 C 4,1 C 1,7 C 89 % 76 % 45 % 1032,2 hPa 0,0 l/m 4,0 km/h (1 Bft) W-SW 247 0 min 0,8 C 4,1 C 6,9 km/h (2 Bft)
18.12.2016 13:20 2,4 C 3,2 C 3,7 C 3,8 C 3,8 C 1,4 C 89 % 76 % 37 % 1032,2 hPa 0,0 l/m 4,2 km/h (1 Bft) W-SW 247 0 min 0,8 C 3,8 C 7,9 km/h (2 Bft)
18.12.2016 13:25 2,4 C 3,2 C 3,9 C 3,9 C 3,9 C 1,5 C 89 % 76 % 39 % 1032,2 hPa 0,0 l/m 4,0 km/h (1 Bft) SW 225 0 min 0,8 C 3,9 C 3,7 km/h (1 Bft)
18.12.2016 13:30 2,4 C 3,2 C 3,7 C 3,8 C 3,8 C 1,4 C 89 % 76 % 37 % 1032,2 hPa 0,0 l/m 4,0 km/h (1 Bft) SW 225 0 min 0,8 C 3,8 C 3,5 km/h (1 Bft)
18.12.2016 13:35 2,4 C 3,2 C 3,7 C 4,1 C 4,1 C 1,7 C 89 % 76 % 45 % 1032,2 hPa 0,0 l/m 3,5 km/h (1 Bft) SW 225 0 min 0,8 C 4,1 C 5,0 km/h (1 Bft)
18.12.2016 13:40 2,4 C 3,2 C 3,7 C 3,8 C 3,8 C 1,4 C 89 % 76 % 37 % 1031,8 hPa 0,0 l/m 3,9 km/h (1 Bft) W-SW 247 0 min 0,8 C 3,8 C 6,1 km/h (2 Bft)
18.12.2016 13:45 2,4 C 3,4 C 3,7 C 3,3 C 3,3 C 0,9 C 89 % 76 % 24 % 1031,8 hPa 0,0 l/m 4,3 km/h (1 Bft) W-SW 247 0 min 0,8 C 3,3 C 7,7 km/h (2 Bft)
18.12.2016 13:50 2,3 C 3,4 C 3,7 C 3,2 C 3,2 C 0,9 C 88 % 76 % 24 % 1031,8 hPa 0,0 l/m 4,3 km/h (1 Bft) SW 225 0 min 0,5 C 3,2 C 7,1 km/h (2 Bft)
18.12.2016 13:55 2,3 C 3,4 C 3,6 C 3,6 C 3,6 C 1,3 C 89 % 76 % 34 % 1031,8 hPa 0,0 l/m 3,7 km/h (1 Bft) W-SW 247 0 min 0,7 C 3,6 C 1,9 km/h (1 Bft)
18.12.2016 14:00 2,3 C 3,4 C 3,6 C 3,5 C 3,5 C 1,2 C 88 % 76 % 32 % 1031,8 hPa 0,0 l/m 3,5 km/h (1 Bft) W 270 0 min 0,5 C 3,5 C 4,8 km/h (1 Bft)
18.12.2016 14:05 2,2 C 3,4 C 3,6 C 3,5 C 3,5 C 1,3 C 88 % 76 % 34 % 1031,8 hPa 0,0 l/m 3,2 km/h (1 Bft) W-SW 247 0 min 0,4 C 3,5 C 5,5 km/h (1 Bft)
18.12.2016 14:10 2,3 C 3,4 C 3,5 C 3,4 C 3,4 C 1,1 C 88 % 76 % 29 % 1031,8 hPa 0,0 l/m 3,2 km/h (1 Bft) S-SW 202 0 min 0,5 C 3,4 C 3,5 km/h (1 Bft)
18.12.2016 14:15 2,3 C 3,4 C 3,5 C 3,3 C 3,3 C 1,0 C 88 % 76 % 26 % 1031,8 hPa 0,0 l/m 3,1 km/h (1 Bft) W 270 0 min 0,5 C 3,3 C 4,3 km/h (1 Bft)
18.12.2016 14:20 2,3 C 3,4 C 3,5 C 3,4 C 3,4 C 1,1 C 88 % 76 % 29 % 1031,8 hPa 0,0 l/m 2,9 km/h (1 Bft) W-SW 247 0 min 0,5 C 3,4 C 3,2 km/h (1 Bft)
18.12.2016 14:25 2,3 C 3,4 C 3,5 C 3,5 C 3,5 C 1,2 C 89 % 76 % 32 % 1031,8 hPa 0,0 l/m 2,7 km/h (1 Bft) S 180 0 min 0,7 C 3,5 C 3,7 km/h (1 Bft)
18.12.2016 14:30 2,3 C 3,4 C 3,5 C 3,5 C 3,5 C 1,2 C 89 % 76 % 32 % 1031,8 hPa 0,0 l/m 2,6 km/h (1 Bft) W-SW 247 0 min 0,7 C 3,5 C 3,4 km/h (1 Bft)
18.12.2016 14:35 2,3 C 3,5 C 3,4 C 3,5 C 3,5 C 1,2 C 89 % 76 % 32 % 1031,8 hPa 0,7 l/m 2,7 km/h (1 Bft) W-SW 247 0 min 0,7 C 3,5 C 3,1 km/h (1 Bft)
18.12.2016 14:40 2,3 C 3,5 C 3,3 C 3,5 C 3,5 C 1,2 C 89 % 76 % 32 % 1032,1 hPa 0,0 l/m 2,4 km/h (1 Bft) W-SW 247 0 min 0,7 C 3,5 C 3,9 km/h (1 Bft)
18.12.2016 14:45 2,3 C 3,5 C 3,3 C 3,5 C 3,5 C 1,2 C 89 % 76 % 32 % 1032,1 hPa 0,0 l/m 2,3 km/h (1 Bft) SW 225 0 min 0,7 C 3,5 C 2,9 km/h (1 Bft)
18.12.2016 14:50 2,3 C 3,5 C 3,3 C 3,5 C 3,5 C 1,2 C 89 % 76 % 32 % 1032,1 hPa 0,0 l/m 2,4 km/h (1 Bft) SW 225 0 min 0,7 C 3,5 C 2,1 km/h (1 Bft)
18.12.2016 14:55 2,3 C 3,5 C 3,3 C 3,5 C 3,5 C 1,2 C 89 % 76 % 32 % 1032,1 hPa 0,0 l/m 2,4 km/h (1 Bft) SW 225 0 min 0,7 C 3,5 C 2,3 km/h (1 Bft)
18.12.2016 15:00 2,3 C 3,5 C 3,3 C 3,5 C 3,5 C 1,2 C 89 % 76 % 32 % 1031,3 hPa 0,0 l/m 2,3 km/h (1 Bft) SW 225 0 min 0,7 C 3,5 C 0,0 km/h (0 Bft)
18.12.2016 15:05 2,3 C 3,5 C 3,3 C 3,5 C 3,5 C 1,2 C 89 % 76 % 32 % 1031,3 hPa 0,0 l/m 1,8 km/h (1 Bft) W-SW 247 0 min 0,7 C 3,5 C 3,4 km/h (1 Bft)
18.12.2016 15:10 2,3 C 3,5 C 3,3 C 3,5 C 3,5 C 1,2 C 89 % 76 % 32 % 1031,3 hPa 0,0 l/m 1,6 km/h (1 Bft) W-SW 247 0 min 0,7 C 3,5 C 2,7 km/h (1 Bft)
18.12.2016 15:15 2,3 C 3,5 C 3,2 C 3,5 C 3,5 C 1,2 C 89 % 75 % 32 % 1031,3 hPa 0,0 l/m 1,8 km/h (1 Bft) W-SW 247 0 min 0,7 C 3,5 C 0,0 km/h (0 Bft)
18.12.2016 15:20 2,3 C 3,5 C 3,2 C 3,5 C 3,5 C 1,2 C 89 % 75 % 32 % 1031,6 hPa 0,0 l/m 1,6 km/h (1 Bft) W-SW 247 0 min 0,7 C 3,5 C 1,9 km/h (1 Bft)
18.12.2016 15:25 2,3 C 3,5 C 3,2 C 3,5 C 3,5 C 1,2 C 89 % 76 % 32 % 1031,6 hPa 0,0 l/m 1,3 km/h (1 Bft) W-SW 247 0 min 0,7 C 3,5 C 2,6 km/h (1 Bft)
18.12.2016 15:30 2,3 C 3,5 C 3,2 C 3,5 C 3,5 C 1,2 C 89 % 76 % 32 % 1031,6 hPa 0,0 l/m 1,6 km/h (1 Bft) W-SW 247 5 min 0,7 C 3,5 C 3,1 km/h (1 Bft)
18.12.2016 15:35 2,3 C 3,5 C 3,3 C 3,4 C 3,4 C 1,1 C 89 % 76 % 29 % 1031,6 hPa 0,0 l/m 1,8 km/h (1 Bft) W-SW 247 5 min 0,7 C 3,4 C 1,9 km/h (1 Bft)
18.12.2016 15:40 2,2 C 3,5 C 3,2 C 3,4 C 3,4 C 1,2 C 89 % 75 % 32 % 1031,6 hPa 0,0 l/m 1,3 km/h (1 Bft) W-SW 247 5 min 0,6 C 3,4 C 2,3 km/h (1 Bft)
18.12.2016 15:45 2,3 C 3,5 C 3,2 C 3,4 C 3,4 C 1,1 C 89 % 75 % 29 % 1031,6 hPa 0,0 l/m 1,3 km/h (1 Bft) S-SW 202 5 min 0,7 C 3,4 C 1,8 km/h (1 Bft)
18.12.2016 15:50 2,3 C 3,5 C 3,3 C 3,4 C 3,4 C 1,1 C 89 % 76 % 0 % 1031,6 hPa 0,0 l/m 1,3 km/h (1 Bft) W-SW 247 0 min 0,7 C 3,4 C 3,5 km/h (1 Bft)
18.12.2016 15:55 2,3 C 3,5 C 3,2 C 3,4 C 3,4 C 1,1 C 89 % 75 % 0 % 1031,6 hPa 0,0 l/m 1,6 km/h (1 Bft) SW 225 0 min 0,7 C 3,4 C 3,1 km/h (1 Bft)
18.12.2016 16:00 2,3 C 3,5 C 3,2 C 3,4 C 3,4 C 1,1 C 89 % 75 % 0 % 1031,3 hPa 0,0 l/m 2,4 km/h (1 Bft) SW 225 0 min 0,7 C 3,4 C 2,7 km/h (1 Bft)
18.12.2016 16:05 2,3 C 3,5 C 3,2 C 3,4 C 3,4 C 1,1 C 89 % 75 % 0 % 1031,3 hPa 0,0 l/m 2,6 km/h (1 Bft) W-SW 247 0 min 0,7 C 3,4 C 3,5 km/h (1 Bft)
18.12.2016 16:10 2,3 C 3,5 C 3,2 C 3,4 C 3,4 C 1,1 C 89 % 75 % 0 % 1031,3 hPa 0,0 l/m 1,9 km/h (1 Bft) W-SW 247 0 min 0,7 C 3,4 C 3,7 km/h (1 Bft)
18.12.2016 16:15 2,2 C 3,5 C 3,2 C 3,3 C 3,3 C 1,1 C 89 % 75 % 0 % 1031,3 hPa 0,7 l/m 0,6 km/h (0 Bft) N 360 0 min 0,6 C 3,3 C 0,0 km/h (0 Bft)
18.12.2016 16:20 2,1 C 3,5 C 3,1 C 3,3 C 3,3 C 1,2 C 88 % 75 % 0 % 1031,3 hPa 0,0 l/m 0,3 km/h (0 Bft) W 270 0 min 0,3 C 3,3 C 0,0 km/h (0 Bft)
18.12.2016 16:25 2,1 C 3,5 C 3,0 C 3,2 C 3,2 C 1,1 C 88 % 75 % 0 % 1031,3 hPa 0,0 l/m 0,0 km/h (0 Bft) SW 225 0 min 0,3 C 3,2 C 0,0 km/h (0 Bft)
18.12.2016 16:30 2,1 C 3,6 C 3,1 C 3,2 C 3,2 C 1,1 C 88 % 75 % 0 % 1031,3 hPa 0,0 l/m 0,3 km/h (0 Bft) SW 225 0 min 0,3 C 3,2 C 0,0 km/h (0 Bft)
18.12.2016 16:35 2,1 C 3,6 C 3,1 C 3,3 C 3,3 C 1,2 C 89 % 75 % 0 % 1031,3 hPa 0,0 l/m 1,0 km/h (0 Bft) W 270 0 min 0,5 C 3,3 C 0,0 km/h (0 Bft)
18.12.2016 16:40 2,2 C 3,6 C 3,1 C 3,3 C 3,3 C 1,1 C 89 % 75 % 0 % 1031,3 hPa 0,0 l/m 1,1 km/h (1 Bft) W 270 0 min 0,6 C 3,3 C 1,9 km/h (1 Bft)
18.12.2016 16:45 2,3 C 3,6 C 3,1 C 3,4 C 3,4 C 1,1 C 89 % 75 % 0 % 1031,3 hPa 0,0 l/m 1,1 km/h (1 Bft) W-SW 247 0 min 0,7 C 3,4 C 0,0 km/h (0 Bft)
18.12.2016 16:50 2,2 C 3,6 C 3,1 C 3,4 C 3,4 C 1,2 C 89 % 75 % 0 % 1031,3 hPa 0,0 l/m 1,6 km/h (1 Bft) W 270 0 min 0,6 C 3,4 C 3,2 km/h (1 Bft)
18.12.2016 16:55 2,3 C 3,6 C 3,1 C 3,5 C 3,5 C 1,2 C 89 % 75 % 0 % 1031,3 hPa 0,0 l/m 1,8 km/h (1 Bft) W-SW 247 0 min 0,7 C 3,5 C 0,0 km/h (0 Bft)
18.12.2016 17:00 2,2 C 3,6 C 3,1 C 3,5 C 3,5 C 1,3 C 89 % 75 % 0 % 1031,3 hPa 0,0 l/m 1,3 km/h (1 Bft) W-SW 247 0 min 0,6 C 3,5 C 1,6 km/h (1 Bft)
18.12.2016 17:05 2,3 C 3,6 C 3,1 C 3,5 C 3,5 C 1,2 C 89 % 75 % 0 % 1031,3 hPa 0,0 l/m 0,8 km/h (0 Bft) SW 225 0 min 0,7 C 3,5 C 2,3 km/h (1 Bft)
18.12.2016 17:10 2,3 C 3,6 C 3,2 C 3,5 C 3,5 C 1,2 C 89 % 75 % 0 % 1031,3 hPa 0,0 l/m 1,6 km/h (1 Bft) W 270 0 min 0,7 C 3,5 C 0,0 km/h (0 Bft)
18.12.2016 17:15 2,4 C 3,6 C 3,2 C 3,5 C 3,5 C 1,1 C 89 % 75 % 0 % 1031,3 hPa 0,0 l/m 1,3 km/h (1 Bft) W 270 0 min 0,8 C 3,5 C 0,0 km/h (0 Bft)
18.12.2016 17:20 2,4 C 3,6 C 3,2 C 3,5 C 3,5 C 1,1 C 89 % 75 % 0 % 1031,3 hPa 0,0 l/m 1,3 km/h (1 Bft) W-SW 247 0 min 0,8 C 3,5 C 2,7 km/h (1 Bft)
18.12.2016 17:25 2,4 C 3,6 C 3,2 C 3,5 C 3,5 C 1,1 C 89 % 75 % 0 % 1031,3 hPa 0,0 l/m 1,9 km/h (1 Bft) W-SW 247 0 min 0,8 C 3,5 C 1,6 km/h (1 Bft)
18.12.2016 17:30 2,4 C 3,6 C 3,3 C 3,5 C 3,5 C 1,1 C 89 % 76 % 0 % 1031,3 hPa 0,0 l/m 1,9 km/h (1 Bft) W-SW 247 0 min 0,8 C 3,5 C 1,8 km/h (1 Bft)
18.12.2016 17:35 2,4 C 3,6 C 3,2 C 3,5 C 3,5 C 1,1 C 89 % 75 % 0 % 1031,3 hPa 0,0 l/m 1,3 km/h (1 Bft) W 270 0 min 0,8 C 3,5 C 1,6 km/h (1 Bft)
18.12.2016 17:40 2,4 C 3,6 C 3,2 C 3,5 C 3,5 C 1,1 C 89 % 75 % 0 % 1031,3 hPa 0,0 l/m 1,1 km/h (1 Bft) W-SW 247 0 min 0,8 C 3,5 C 4,3 km/h (1 Bft)
18.12.2016 17:45 2,4 C 3,6 C 3,3 C 3,5 C 3,5 C 1,1 C 89 % 76 % 0 % 1031,3 hPa 0,0 l/m 1,4 km/h (1 Bft) SW 225 0 min 0,8 C 3,5 C 1,9 km/h (1 Bft)
18.12.2016 17:50 2,4 C 3,6 C 3,3 C 3,5 C 3,5 C 1,1 C 89 % 76 % 0 % 1031,3 hPa 0,0 l/m 1,8 km/h (1 Bft) W-SW 247 0 min 0,8 C 3,5 C 2,6 km/h (1 Bft)
18.12.2016 17:55 2,4 C 3,6 C 3,2 C 3,5 C 3,5 C 1,1 C 89 % 75 % 0 % 1031,3 hPa 0,0 l/m 1,4 km/h (1 Bft) W 270 0 min 0,8 C 3,5 C 0,0 km/h (0 Bft)
18.12.2016 18:00 2,4 C 3,6 C 3,2 C 3,5 C 3,5 C 1,1 C 89 % 75 % 0 % 1031,3 hPa 0,0 l/m 1,0 km/h (0 Bft) W-SW 247 0 min 0,8 C 3,5 C 2,6 km/h (1 Bft)
18.12.2016 18:05 2,4 C 3,6 C 3,2 C 3,6 C 3,6 C 1,2 C 89 % 75 % 0 % 1031,3 hPa 0,0 l/m 1,1 km/h (1 Bft) W 270 0 min 0,8 C 3,6 C 0,0 km/h (0 Bft)
18.12.2016 18:10 2,4 C 3,6 C 3,3 C 3,5 C 3,5 C 1,1 C 89 % 76 % 0 % 1031,3 hPa 0,0 l/m 1,4 km/h (1 Bft) W-SW 247 0 min 0,8 C 3,5 C 1,8 km/h (1 Bft)
18.12.2016 18:15 2,4 C 3,6 C 3,3 C 3,5 C 3,5 C 1,1 C 89 % 76 % 0 % 1031,3 hPa 0,0 l/m 1,3 km/h (1 Bft) W-SW 247 0 min 0,8 C 3,5 C 3,7 km/h (1 Bft)
18.12.2016 18:20 2,4 C 3,6 C 3,2 C 3,5 C 3,5 C 1,1 C 89 % 75 % 0 % 1030,9 hPa 0,0 l/m 1,6 km/h (1 Bft) W-SW 247 0 min 0,8 C 3,5 C 2,9 km/h (1 Bft)
18.12.2016 18:25 2,4 C 3,6 C 3,3 C 3,5 C 3,5 C 1,1 C 89 % 76 % 0 % 1030,9 hPa 0,0 l/m 1,4 km/h (1 Bft) W-SW 247 0 min 0,8 C 3,5 C 3,7 km/h (1 Bft)
18.12.2016 18:30 2,4 C 3,6 C 3,3 C 3,5 C 3,5 C 1,1 C 89 % 76 % 0 % 1030,9 hPa 0,0 l/m 1,1 km/h (1 Bft) S 180 0 min 0,8 C 3,5 C 2,6 km/h (1 Bft)
18.12.2016 18:35 2,4 C 3,7 C 3,3 C 3,6 C 3,6 C 1,2 C 89 % 76 % 0 % 1030,9 hPa 0,0 l/m 0,8 km/h (0 Bft) SW 225 0 min 0,8 C 3,6 C 0,0 km/h (0 Bft)
18.12.2016 18:40 2,4 C 3,7 C 3,2 C 3,5 C 3,5 C 1,1 C 89 % 75 % 0 % 1030,9 hPa 0,0 l/m 0,3 km/h (0 Bft) SW 225 0 min 0,8 C 3,5 C 0,0 km/h (0 Bft)
18.12.2016 18:45 2,4 C 3,7 C 3,2 C 3,5 C 3,5 C 1,1 C 89 % 75 % 0 % 1030,9 hPa 0,0 l/m 0,6 km/h (0 Bft) W-SW 247 0 min 0,8 C 3,5 C 2,7 km/h (1 Bft)
18.12.2016 18:50 2,4 C 3,7 C 3,2 C 3,5 C 3,5 C 1,1 C 89 % 75 % 0 % 1030,9 hPa 0,0 l/m 1,0 km/h (0 Bft) W-SW 247 0 min 0,8 C 3,5 C 0,0 km/h (0 Bft)
18.12.2016 18:55 2,2 C 3,7 C 3,1 C 3,4 C 3,4 C 1,2 C 89 % 75 % 0 % 1030,9 hPa 0,0 l/m 0,5 km/h (0 Bft) W-SW 247 0 min 0,6 C 3,4 C 1,6 km/h (1 Bft)
18.12.2016 19:00 2,2 C 3,8 C 3,1 C 3,3 C 3,3 C 1,1 C 89 % 75 % 0 % 1031,2 hPa 0,0 l/m 0,2 km/h (0 Bft) SW 225 0 min 0,6 C 3,3 C 0,0 km/h (0 Bft)
18.12.2016 19:05 2,1 C 3,8 C 3,1 C 3,3 C 3,3 C 1,2 C 89 % 75 % 0 % 1031,2 hPa 0,0 l/m 0,0 km/h (0 Bft) O 90 0 min 0,5 C 3,3 C 0,0 km/h (0 Bft)
18.12.2016 19:06 2,1 C 3,8 C 3,1 C 3,2 C 3,2 C 1,1 C 89 % 75 % 0 % 1031,2 hPa 0,0 l/m 0,0 km/h (0 Bft) O-NO 67 0 min 0,5 C 3,2 C 0,0 km/h (0 Bft)
18.12.2016 19:11 2,1 C 3,8 C 3,1 C 3,2 C 3,2 C 1,1 C 89 % 75 % 0 % 1031,2 hPa 0,0 l/m 0,0 km/h (0 Bft) SW 225 0 min 0,5 C 3,2 C 0,0 km/h (0 Bft)
18.12.2016 19:16 2,1 C 3,8 C 3,1 C 3,2 C 3,2 C 1,1 C 89 % 75 % 0 % 1031,2 hPa 0,0 l/m 0,0 km/h (0 Bft) S 180 0 min 0,5 C 3,2 C 0,0 km/h (0 Bft)
18.12.2016 19:21 2,1 C 3,8 C 3,1 C 3,3 C 3,3 C 1,2 C 89 % 75 % 0 % 1031,2 hPa 0,0 l/m 0,2 km/h (0 Bft) O 90 0 min 0,5 C 3,3 C 0,0 km/h (0 Bft)
18.12.2016 19:26 2,1 C 3,8 C 3,0 C 3,2 C 3,2 C 1,1 C 89 % 75 % 0 % 1031,2 hPa 0,0 l/m 0,2 km/h (0 Bft) O 90 0 min 0,5 C 3,2 C 0,0 km/h (0 Bft)
18.12.2016 19:31 2,0 C 3,8 C 2,9 C 3,2 C 3,2 C 1,2 C 89 % 75 % 0 % 1031,2 hPa 0,0 l/m 0,0 km/h (0 Bft) O-NO 67 0 min 0,4 C 3,2 C 0,0 km/h (0 Bft)
18.12.2016 19:36 2,0 C 3,8 C 3,1 C 3,2 C 3,2 C 1,2 C 89 % 75 % 0 % 1031,6 hPa 0,0 l/m 0,0 km/h (0 Bft) N-NW 337 0 min 0,4 C 3,2 C 0,0 km/h (0 Bft)
18.12.2016 19:41 2,0 C 3,8 C 3,0 C 3,2 C 3,2 C 1,2 C 89 % 75 % 0 % 1031,6 hPa 0,0 l/m 0,0 km/h (0 Bft) SW 225 0 min 0,4 C 3,2 C 0,0 km/h (0 Bft)
18.12.2016 19:45 2,0 C 3,8 C 3,0 C 3,2 C 3,2 C 1,2 C 89 % 75 % 0 % 1031,6 hPa 0,0 l/m 0,0 km/h (0 Bft) SW 225 0 min 0,4 C 3,2 C 0,0 km/h (0 Bft)
18.12.2016 19:50 2,1 C 3,8 C 3,0 C 3,3 C 3,3 C 1,2 C 89 % 75 % 0 % 1031,6 hPa 0,0 l/m 0,0 km/h (0 Bft) W-SW 247 0 min 0,5 C 3,3 C 0,0 km/h (0 Bft)
18.12.2016 19:55 2,1 C 3,8 C 3,1 C 3,3 C 3,3 C 1,2 C 89 % 76 % 0 % 1031,6 hPa 0,0 l/m 0,0 km/h (0 Bft) S 180 0 min 0,5 C 3,3 C 0,0 km/h (0 Bft)
18.12.2016 20:00 2,1 C 3,8 C 3,1 C 3,4 C 3,4 C 1,3 C 89 % 76 % 0 % 1031,1 hPa 0,0 l/m 0,0 km/h (0 Bft) O-SO 112 0 min 0,5 C 3,4 C 0,0 km/h (0 Bft)
18.12.2016 20:05 2,1 C 3,8 C 3,1 C 3,4 C 3,4 C 1,3 C 89 % 76 % 0 % 1031,1 hPa 0,0 l/m 0,0 km/h (0 Bft) O-SO 112 0 min 0,5 C 3,4 C 0,0 km/h (0 Bft)
18.12.2016 20:10 2,3 C 3,8 C 3,0 C 3,4 C 3,4 C 1,1 C 89 % 76 % 0 % 1031,1 hPa 0,0 l/m 0,0 km/h (0 Bft) W-NW 292 0 min 0,7 C 3,4 C 0,0 km/h (0 Bft)
18.12.2016 20:15 2,3 C 3,8 C 3,1 C 3,4 C 3,4 C 1,1 C 89 % 76 % 0 % 1031,1 hPa 0,0 l/m 0,0 km/h (0 Bft) SW 225 0 min 0,7 C 3,4 C 0,0 km/h (0 Bft)
18.12.2016 20:20 2,3 C 3,8 C 3,1 C 3,5 C 3,5 C 1,2 C 89 % 76 % 0 % 1031,1 hPa 0,0 l/m 0,0 km/h (0 Bft) SW 225 0 min 0,7 C 3,5 C 0,0 km/h (0 Bft)
18.12.2016 20:25 2,3 C 3,8 C 3,0 C 3,5 C 3,5 C 1,2 C 89 % 76 % 0 % 1031,1 hPa 0,0 l/m 0,0 km/h (0 Bft) S 180 0 min 0,7 C 3,5 C 0,0 km/h (0 Bft)
18.12.2016 20:30 2,3 C 3,8 C 3,1 C 3,4 C 3,4 C 1,1 C 89 % 76 % 0 % 1031,1 hPa 0,0 l/m 0,0 km/h (0 Bft) O 90 0 min 0,7 C 3,4 C 0,0 km/h (0 Bft)
18.12.2016 20:35 2,3 C 3,8 C 3,1 C 3,4 C 3,4 C 1,1 C 89 % 76 % 0 % 1031,1 hPa 0,0 l/m 0,0 km/h (0 Bft) S-SO 157 0 min 0,7 C 3,4 C 0,0 km/h (0 Bft)
18.12.2016 20:45 2,2 C 3,8 C 3,1 C 3,5 C 3,5 C 1,3 C 89 % 76 % 0 % 1031,1 hPa 0,0 l/m 0,0 km/h (0 Bft) SO 135 0 min 0,6 C 3,5 C 0,0 km/h (0 Bft)
18.12.2016 20:50 2,3 C 3,8 C 3,1 C 3,5 C 3,5 C 1,2 C 89 % 76 % 0 % 1031,1 hPa 0,0 l/m 0,0 km/h (0 Bft) SO 135 0 min 0,7 C 3,5 C 0,0 km/h (0 Bft)
18.12.2016 20:55 2,3 C 3,8 C 3,1 C 3,5 C 3,5 C 1,2 C 89 % 76 % 0 % 1031,1 hPa 0,0 l/m 0,3 km/h (0 Bft) S 180 0 min 0,7 C 3,5 C 0,0 km/h (0 Bft)
18.12.2016 21:00 2,3 C 3,8 C 3,1 C 3,5 C 3,5 C 1,2 C 89 % 76 % 0 % 1031,1 hPa 0,0 l/m 0,3 km/h (0 Bft) SW 225 0 min 0,7 C 3,5 C 0,0 km/h (0 Bft)
18.12.2016 21:05 2,3 C 3,8 C 3,1 C 3,5 C 3,5 C 1,2 C 89 % 76 % 0 % 1031,1 hPa 0,0 l/m 0,0 km/h (0 Bft) SW 225 0 min 0,7 C 3,5 C 0,0 km/h (0 Bft)
18.12.2016 21:10 2,2 C 3,8 C 3,1 C 3,5 C 3,5 C 1,3 C 89 % 76 % 0 % 1031,1 hPa 0,7 l/m 0,0 km/h (0 Bft) S 180 0 min 0,6 C 3,5 C 0,0 km/h (0 Bft)
18.12.2016 21:15 2,3 C 3,8 C 3,1 C 3,4 C 3,4 C 1,1 C 89 % 76 % 0 % 1031,1 hPa 0,0 l/m 0,0 km/h (0 Bft) O-NO 67 0 min 0,7 C 3,4 C 0,0 km/h (0 Bft)
18.12.2016 21:20 2,3 C 3,8 C 3,1 C 3,4 C 3,4 C 1,1 C 89 % 76 % 0 % 1031,1 hPa 0,0 l/m 0,0 km/h (0 Bft) SO 135 0 min 0,7 C 3,4 C 0,0 km/h (0 Bft)
18.12.2016 21:25 2,3 C 3,8 C 3,1 C 3,4 C 3,4 C 1,1 C 89 % 76 % 0 % 1031,1 hPa 0,0 l/m 0,0 km/h (0 Bft) N-NW 337 0 min 0,7 C 3,4 C 0,0 km/h (0 Bft)
18.12.2016 21:30 2,3 C 3,8 C 3,1 C 3,4 C 3,4 C 1,1 C 89 % 76 % 0 % 1031,1 hPa 0,0 l/m 0,0 km/h (0 Bft) O 90 0 min 0,7 C 3,4 C 0,0 km/h (0 Bft)
18.12.2016 21:35 2,3 C 3,8 C 3,1 C 3,4 C 3,4 C 1,1 C 89 % 76 % 0 % 1031,1 hPa 0,0 l/m 0,0 km/h (0 Bft) O 90 0 min 0,7 C 3,4 C 0,0 km/h (0 Bft)
18.12.2016 21:36 2,2 C 3,8 C 3,1 C 3,4 C 3,4 C 1,2 C 89 % 76 % 0 % 1031,1 hPa 0,0 l/m 0,0 km/h (0 Bft) O 90 0 min 0,6 C 3,4 C 0,0 km/h (0 Bft)
18.12.2016 21:42 2,2 C 3,8 C 3,1 C 3,4 C 3,4 C 1,2 C 89 % 76 % 0 % 1031,1 hPa 0,0 l/m 0,0 km/h (0 Bft) O 90 0 min 0,6 C 3,4 C 0,0 km/h (0 Bft)
18.12.2016 21:45 2,3 C 3,8 C 3,1 C 3,4 C 3,4 C 1,1 C 89 % 76 % 0 % 1031,1 hPa 0,0 l/m 0,0 km/h (0 Bft) O-NO 67 0 min 0,7 C 3,4 C 0,0 km/h (0 Bft)
18.12.2016 21:50 2,3 C 3,8 C 3,1 C 3,4 C 3,4 C 1,1 C 89 % 76 % 0 % 1031,1 hPa 0,0 l/m 0,0 km/h (0 Bft) O-NO 67 0 min 0,7 C 3,4 C 0,0 km/h (0 Bft)
18.12.2016 21:55 2,2 C 3,8 C 3,1 C 3,3 C 3,3 C 1,1 C 89 % 76 % 0 % 1031,1 hPa 0,0 l/m 0,0 km/h (0 Bft) O-NO 67 0 min 0,6 C 3,3 C 0,0 km/h (0 Bft)
18.12.2016 22:00 2,2 C 3,8 C 3,0 C 3,3 C 3,3 C 1,1 C 89 % 76 % 0 % 1031,1 hPa 0,0 l/m 0,0 km/h (0 Bft) O 90 0 min 0,6 C 3,3 C 0,0 km/h (0 Bft)
18.12.2016 22:05 2,1 C 3,8 C 3,1 C 3,3 C 3,3 C 1,2 C 89 % 76 % 0 % 1031,1 hPa 0,0 l/m 0,0 km/h (0 Bft) SW 225 0 min 0,5 C 3,3 C 0,0 km/h (0 Bft)
18.12.2016 22:06 2,1 C 3,8 C 3,0 C 3,3 C 3,3 C 1,2 C 89 % 76 % 0 % 1031,1 hPa 0,0 l/m 0,0 km/h (0 Bft) SW 225 0 min 0,5 C 3,3 C 0,0 km/h (0 Bft)
18.12.2016 22:11 2,1 C 3,9 C 3,0 C 3,3 C 3,3 C 1,2 C 89 % 76 % 0 % 1031,1 hPa 0,0 l/m 0,0 km/h (0 Bft) W 270 0 min 0,5 C 3,3 C 0,0 km/h (0 Bft)
18.12.2016 22:17 2,1 C 3,9 C 3,0 C 3,3 C 3,3 C 1,2 C 89 % 76 % 0 % 1031,1 hPa 0,0 l/m 0,0 km/h (0 Bft) W 270 0 min 0,5 C 3,3 C 0,0 km/h (0 Bft)
18.12.2016 22:20 2,1 C 3,9 C 2,9 C 3,3 C 3,3 C 1,2 C 89 % 76 % 0 % 1031,1 hPa 0,0 l/m 0,0 km/h (0 Bft) SW 225 0 min 0,5 C 3,3 C 0,0 km/h (0 Bft)
18.12.2016 22:25 2,0 C 3,9 C 3,1 C 3,3 C 3,3 C 1,3 C 89 % 76 % 0 % 1031,1 hPa 0,0 l/m 0,0 km/h (0 Bft) O 90 0 min 0,4 C 3,3 C 0,0 km/h (0 Bft)
18.12.2016 22:30 2,1 C 3,9 C 3,1 C 3,3 C 3,3 C 1,2 C 89 % 76 % 0 % 1031,1 hPa 0,0 l/m 0,0 km/h (0 Bft) O-SO 112 0 min 0,5 C 3,3 C 0,0 km/h (0 Bft)
18.12.2016 22:35 2,1 C 3,9 C 3,1 C 3,3 C 3,3 C 1,2 C 89 % 76 % 0 % 1031,1 hPa 0,0 l/m 0,0 km/h (0 Bft) O-SO 112 0 min 0,5 C 3,3 C 0,0 km/h (0 Bft)
18.12.2016 22:40 2,0 C 3,9 C 2,9 C 3,2 C 3,2 C 1,2 C 89 % 76 % 0 % 1031,1 hPa 0,0 l/m 0,0 km/h (0 Bft) O-SO 112 0 min 0,4 C 3,2 C 0,0 km/h (0 Bft)
18.12.2016 22:45 2,1 C 3,9 C 2,9 C 3,2 C 3,2 C 1,1 C 89 % 76 % 0 % 1031,1 hPa 0,0 l/m 0,0 km/h (0 Bft) S-SW 202 0 min 0,5 C 3,2 C 0,0 km/h (0 Bft)
18.12.2016 22:50 2,0 C 3,9 C 2,9 C 3,2 C 3,2 C 1,2 C 89 % 76 % 0 % 1031,1 hPa 0,0 l/m 0,0 km/h (0 Bft) S-SW 202 0 min 0,4 C 3,2 C 0,0 km/h (0 Bft)
18.12.2016 22:55 2,1 C 3,9 C 2,9 C 3,2 C 3,2 C 1,1 C 89 % 76 % 0 % 1031,1 hPa 0,0 l/m 0,0 km/h (0 Bft) S-SW 202 0 min 0,5 C 3,2 C 0,0 km/h (0 Bft)
18.12.2016 23:00 2,0 C 3,9 C 2,9 C 3,2 C 3,2 C 1,2 C 89 % 76 % 0 % 1031,4 hPa 0,0 l/m 0,0 km/h (0 Bft) S-SW 202 0 min 0,4 C 3,2 C 0,0 km/h (0 Bft)
18.12.2016 23:05 2,0 C 3,9 C 2,9 C 3,2 C 3,2 C 1,2 C 89 % 76 % 0 % 1031,4 hPa 0,0 l/m 0,0 km/h (0 Bft) S-SW 202 0 min 0,4 C 3,2 C 0,0 km/h (0 Bft)
18.12.2016 23:10 2,0 C 3,9 C 2,9 C 3,2 C 3,2 C 1,2 C 89 % 76 % 0 % 1031,4 hPa 0,0 l/m 0,0 km/h (0 Bft) S-SW 202 0 min 0,4 C 3,2 C 0,0 km/h (0 Bft)
18.12.2016 23:15 2,0 C 3,9 C 2,9 C 3,2 C 3,2 C 1,2 C 89 % 76 % 0 % 1031,4 hPa 0,0 l/m 0,0 km/h (0 Bft) S-SW 202 0 min 0,4 C 3,2 C 0,0 km/h (0 Bft)
18.12.2016 23:20 2,0 C 3,9 C 2,9 C 3,2 C 3,2 C 1,2 C 89 % 76 % 0 % 1031,4 hPa 0,0 l/m 0,0 km/h (0 Bft) SW 225 0 min 0,4 C 3,2 C 0,0 km/h (0 Bft)
18.12.2016 23:25 2,0 C 3,9 C 2,9 C 3,2 C 3,2 C 1,2 C 89 % 76 % 0 % 1031,4 hPa 0,0 l/m 0,0 km/h (0 Bft) S 180 0 min 0,4 C 3,2 C 0,0 km/h (0 Bft)
18.12.2016 23:30 2,0 C 3,9 C 2,9 C 3,2 C 3,2 C 1,2 C 89 % 76 % 0 % 1031,4 hPa 0,0 l/m 0,0 km/h (0 Bft) O-SO 112 0 min 0,4 C 3,2 C 0,0 km/h (0 Bft)
18.12.2016 23:35 2,0 C 3,9 C 2,9 C 3,2 C 3,2 C 1,2 C 89 % 76 % 0 % 1031,4 hPa 0,0 l/m 0,0 km/h (0 Bft) S-SW 202 0 min 0,4 C 3,2 C 0,0 km/h (0 Bft)
18.12.2016 23:40 2,0 C 3,9 C 2,9 C 3,2 C 3,2 C 1,2 C 89 % 76 % 0 % 1031,6 hPa 0,0 l/m 0,0 km/h (0 Bft) S-SW 202 0 min 0,4 C 3,2 C 0,0 km/h (0 Bft)
18.12.2016 23:45 2,1 C 3,9 C 2,9 C 3,2 C 3,2 C 1,1 C 90 % 76 % 0 % 1031,6 hPa 0,0 l/m 0,0 km/h (0 Bft) S-SO 157 0 min 0,6 C 3,2 C 0,0 km/h (0 Bft)
18.12.2016 23:50 2,1 C 3,9 C 2,9 C 3,2 C 3,2 C 1,1 C 90 % 76 % 0 % 1031,6 hPa 0,0 l/m 0,0 km/h (0 Bft) SW 225 0 min 0,6 C 3,2 C 0,0 km/h (0 Bft)
18.12.2016 23:55 2,1 C 3,9 C 2,9 C 3,2 C 3,2 C 1,1 C 90 % 76 % 0 % 1031,6 hPa 0,0 l/m 0,0 km/h (0 Bft) SW 225 0 min 0,6 C 3,2 C 0,0 km/h (0 Bft)
_ Min-Zeit 00:50 00:00 00:35 00:35 00:40 00:05 00:00 11:45 00:00 18:20 - 00:15 - - - 00:35 07:10 00:00
Minimum _ -0,2 C 2,6 C -0,4 C -0,2 C -0,4 C 0,0 C 85 % 75 % 0 % 1030,9 hPa - 0,0 km/h (0 Bft) - - - -2,3 C -1,3 C 0,0 km/h (0 Bft)
_ Max-Zeit 13:15 22:11 13:05 13:15 13:15 12:45 23:45 00:35 12:45 00:20 14:35 12:35 - - 08:35 13:15 13:15 07:25
Maximum _ 2,4 C 3,9 C 3,9 C 4,1 C 4,1 C 1,8 C 90 % 82 % 47 % 1036,9 hPa 0,7 l/m 5,1 km/h
W-SW (1 Bft)
- - 5 min 0,8 C 4,1 C 12,4 km/h
SO (3 Bft)
Durchschnitt _ 1,4 C 3,2 C 2,3 C 2,5 C 2,5 C 1,0 C 88 % 77 % 9 % 1033,7 hPa #2,1 l/m 1,6 km/h (1 Bft) W-SW - #30 min. -0,4 C 2,4 C 2,3 km/h (1 Bft)
2016 www.wetterstation-wechselburg.de